Time;durP1;ratioP1;P1;durP2;ratioP2;P2;SDS_P1;SDS_P2;PMS_P1;PMS_P2;Temp;Humidity;BMP_temperature;BMP_pressure;BME280_temperature;BME280_humidity;BME280_pressure;Samples;Min_cycle;Max_cycle;Signal;HPM_P1;HPM_P2
2024/01/07 00:00:35;;;;;;;16.52;6.32;;;;;;;;;;10594622;27;20079;-77
2024/01/07 00:05:40;;;;;;;14.63;5.65;;;;;;;;;;10590605;27;20071;-77
2024/01/07 00:10:42;;;;;;;15.90;6.07;;;;;;;;;;10589773;27;20422;-76
2024/01/07 00:15:45;;;;;;;15.40;6.07;;;;;;;;;;10586597;27;20043;-75
2024/01/07 00:20:49;;;;;;;14.68;5.93;;;;;;;;;;10588605;27;20051;-75
2024/01/07 00:25:52;;;;;;;14.88;6.65;;;;;;;;;;10592204;27;20039;-76
2024/01/07 00:30:55;;;;;;;15.65;6.40;;;;;;;;;;10598694;27;20093;-76
2024/01/07 00:35:59;;;;;;;17.80;5.93;;;;;;;;;;10582133;27;20452;-77
2024/01/07 00:41:01;;;;;;;14.90;5.78;;;;;;;;;;10593480;27;20043;-75
2024/01/07 00:46:05;;;;;;;16.77;6.22;;;;;;;;;;10584075;27;20488;-75
2024/01/07 00:51:09;;;;;;;14.20;5.73;;;;;;;;;;10567686;27;20047;-79
2024/01/07 00:56:12;;;;;;;15.52;5.80;;;;;;;;;;10588089;27;20038;-76
2024/01/07 01:01:14;;;;;;;13.15;5.55;;;;;;;;;;10586266;27;20408;-76
2024/01/07 01:06:19;;;;;;;15.35;6.07;;;;;;;;;;10593382;27;20043;-77
2024/01/07 01:11:21;;;;;;;14.95;5.40;;;;;;;;;;10584953;27;20101;-78
2024/01/07 01:16:24;;;;;;;14.07;4.97;;;;;;;;;;10592104;27;20043;-79
2024/01/07 01:21:28;;;;;;;13.88;6.07;;;;;;;;;;10591404;27;20294;-77
2024/01/07 01:26:31;;;;;;;;;;;;;;;;;;10594748;27;20039;-77
2024/01/07 01:31:34;;;;;;;10.75;4.65;;;;;;;;;;10591489;27;20042;-76
2024/01/07 01:36:38;;;;;;;13.88;5.88;;;;;;;;;;10584840;27;20035;-76
2024/01/07 01:41:40;;;;;;;11.45;4.55;;;;;;;;;;10587125;28;20120;-77
2024/01/07 01:46:45;;;;;;;15.02;5.88;;;;;;;;;;10580852;27;20054;-74
2024/01/07 01:51:50;;;;;;;15.20;5.60;;;;;;;;;;10588697;27;20043;-75
2024/01/07 01:56:53;;;;;;;11.02;5.05;;;;;;;;;;10580350;27;20080;-75
2024/01/07 02:01:56;;;;;;;13.73;5.53;;;;;;;;;;10580171;28;20050;-76
2024/01/07 02:06:59;;;;;;;14.52;5.28;;;;;;;;;;10578418;27;20500;-76
2024/01/07 02:12:02;;;;;;;9.57;3.90;;;;;;;;;;10587885;27;20062;-78
2024/01/07 02:17:05;;;;;;;12.60;5.15;;;;;;;;;;10581031;27;20132;-76
2024/01/07 02:22:09;;;;;;;10.57;4.45;;;;;;;;;;10589422;27;20041;-76
2024/01/07 02:27:13;;;;;;;11.90;4.60;;;;;;;;;;10596785;27;20430;-76
2024/01/07 02:32:15;;;;;;;13.35;5.38;;;;;;;;;;10571761;27;20055;-76
2024/01/07 02:37:18;;;;;;;13.75;5.80;;;;;;;;;;10580595;27;20153;-76
2024/01/07 02:42:22;;;;;;;12.68;5.38;;;;;;;;;;10595125;27;20181;-75
2024/01/07 02:47:25;;;;;;;12.25;5.22;;;;;;;;;;10590487;27;20408;-76
2024/01/07 02:52:28;;;;;;;14.00;5.70;;;;;;;;;;10590545;27;20043;-76
2024/01/07 02:57:32;;;;;;;10.98;4.47;;;;;;;;;;10591627;27;20078;-76
2024/01/07 03:02:34;;;;;;;11.82;5.03;;;;;;;;;;10586946;27;20051;-76
2024/01/07 03:07:38;;;;;;;11.65;4.75;;;;;;;;;;10596550;27;20038;-75
2024/01/07 03:12:42;;;;;;;13.25;5.00;;;;;;;;;;10587010;27;20055;-76
2024/01/07 03:17:45;;;;;;;9.95;3.97;;;;;;;;;;10589639;27;20043;-75
2024/01/07 03:22:47;;;;;;;12.65;4.80;;;;;;;;;;10584481;27;20039;-75
2024/01/07 03:27:51;;;;;;;10.85;4.68;;;;;;;;;;10588997;27;20209;-75
2024/01/07 03:32:54;;;;;;;;;;;;;;;;;;10594588;27;20063;-76
2024/01/07 03:37:57;;;;;;;12.02;4.93;;;;;;;;;;10587466;27;19923;-76
2024/01/07 03:43:01;;;;;;;12.90;4.80;;;;;;;;;;10589089;27;20063;-76
2024/01/07 03:48:03;;;;;;;10.02;4.32;;;;;;;;;;10595933;27;20122;-76
2024/01/07 03:53:06;;;;;;;10.07;4.38;;;;;;;;;;10587054;27;20500;-76
2024/01/07 03:58:10;;;;;;;11.00;4.55;;;;;;;;;;10595775;27;20047;-76
2024/01/07 04:03:13;;;;;;;11.02;4.95;;;;;;;;;;10588795;27;20065;-76
2024/01/07 04:08:16;;;;;;;13.82;4.85;;;;;;;;;;10588300;27;20043;-76
2024/01/07 04:13:20;;;;;;;13.43;5.05;;;;;;;;;;10580524;27;20107;-75
2024/01/07 04:18:22;;;;;;;;;;;;;;;;;;10591881;27;20063;-76
2024/01/07 04:23:25;;;;;;;11.75;5.00;;;;;;;;;;10588435;27;19951;-75
2024/01/07 04:28:29;;;;;;;11.32;4.90;;;;;;;;;;10583677;27;20054;-75
2024/01/07 04:33:31;;;;;;;12.07;4.45;;;;;;;;;;10584971;27;20473;-74
2024/01/07 04:38:35;;;;;;;12.75;5.03;;;;;;;;;;10584685;27;20031;-76
2024/01/07 04:43:40;;;;;;;12.60;4.37;;;;;;;;;;10589418;27;20170;-75
2024/01/07 04:48:42;;;;;;;10.80;4.35;;;;;;;;;;10590059;27;20176;-77
2024/01/07 04:53:46;;;;;;;10.05;4.20;;;;;;;;;;10587614;27;20063;-76
2024/01/07 04:58:50;;;;;;;11.13;4.80;;;;;;;;;;10584315;27;20125;-76
2024/01/07 05:03:53;;;;;;;10.73;4.35;;;;;;;;;;10590710;27;20047;-75
2024/01/07 05:08:56;;;;;;;14.05;5.18;;;;;;;;;;10590047;27;20144;-75
2024/01/07 05:14:00;;;;;;;13.20;4.63;;;;;;;;;;10577132;27;20031;-76
2024/01/07 05:19:03;;;;;;;12.02;4.50;;;;;;;;;;10578544;27;20039;-76
2024/01/07 05:24:06;;;;;;;11.13;4.67;;;;;;;;;;10560684;27;20071;-76
2024/01/07 05:29:11;;;;;;;7.85;3.97;;;;;;;;;;10584192;27;20096;-76
2024/01/07 05:34:13;;;;;;;10.07;4.53;;;;;;;;;;10587516;27;20046;-76
2024/01/07 05:39:16;;;;;;;10.27;4.40;;;;;;;;;;10585981;27;20035;-75
2024/01/07 05:44:20;;;;;;;9.88;4.25;;;;;;;;;;10569478;27;20088;-75
2024/01/07 05:49:24;;;;;;;8.82;4.03;;;;;;;;;;10583754;27;20753;-76
2024/01/07 05:54:27;;;;;;;9.82;4.35;;;;;;;;;;10585238;27;20528;-76
2024/01/07 05:59:34;;;;;;;9.23;4.40;;;;;;;;;;10586943;27;20386;-76
2024/01/07 06:04:37;;;;;;;9.13;3.88;;;;;;;;;;10584657;27;20039;-76
2024/01/07 06:09:40;;;;;;;9.40;4.28;;;;;;;;;;10592016;27;20058;-75
2024/01/07 06:14:44;;;;;;;13.35;4.35;;;;;;;;;;10582464;27;20078;-75
2024/01/07 06:19:47;;;;;;;8.25;3.63;;;;;;;;;;10585248;27;20058;-77
2024/01/07 06:24:50;;;;;;;8.93;4.13;;;;;;;;;;10588986;27;20035;-74
2024/01/07 06:29:54;;;;;;;11.97;5.03;;;;;;;;;;10580791;27;20476;-75
2024/01/07 06:34:57;;;;;;;9.65;3.75;;;;;;;;;;10583923;27;20126;-73
2024/01/07 06:39:59;;;;;;;9.88;3.85;;;;;;;;;;10594712;27;20126;-76
2024/01/07 06:45:03;;;;;;;11.10;4.43;;;;;;;;;;10585028;27;20059;-75
2024/01/07 06:50:06;;;;;;;;;;;;;;;;;;10571857;27;20074;-75
2024/01/07 06:55:09;;;;;;;8.68;3.45;;;;;;;;;;10583128;27;19927;-74
2024/01/07 07:00:15;;;;;;;9.30;3.92;;;;;;;;;;10589270;27;20539;-75
2024/01/07 07:05:18;;;;;;;9.90;3.95;;;;;;;;;;10592689;27;20031;-77
2024/01/07 07:10:21;;;;;;;9.25;3.67;;;;;;;;;;10596401;27;20043;-77
2024/01/07 07:15:26;;;;;;;10.18;4.00;;;;;;;;;;10593479;27;20044;-76
2024/01/07 07:20:29;;;;;;;9.02;3.40;;;;;;;;;;10575808;27;20196;-76
2024/01/07 07:25:31;;;;;;;11.90;4.03;;;;;;;;;;10599668;27;20075;-77
2024/01/07 07:30:36;;;;;;;7.85;3.60;;;;;;;;;;10571223;27;20122;-77
2024/01/07 07:35:39;;;;;;;;;;;;;;;;;;10588743;27;20043;-76
2024/01/07 07:40:44;;;;;;;9.20;3.90;;;;;;;;;;10594932;27;19927;-77
2024/01/07 07:45:49;;;;;;;10.18;4.38;;;;;;;;;;10594376;27;20039;-78
2024/01/07 07:50:51;;;;;;;;;;;;;;;;;;10599510;27;20388;-77
2024/01/07 07:55:54;;;;;;;10.93;4.07;;;;;;;;;;10592858;27;20014;-77
2024/01/07 08:00:58;;;;;;;6.40;3.03;;;;;;;;;;10600541;27;20130;-77
2024/01/07 08:06:01;;;;;;;10.23;3.97;;;;;;;;;;10592053;27;20193;-78
2024/01/07 08:11:07;;;;;;;13.98;5.03;;;;;;;;;;10586504;27;20127;-77
2024/01/07 08:16:11;;;;;;;8.23;3.72;;;;;;;;;;10584563;27;20104;-78
2024/01/07 08:21:13;;;;;;;;;;;;;;;;;;10595198;27;20052;-78
2024/01/07 08:26:18;;;;;;;8.75;3.85;;;;;;;;;;10584053;27;20791;-75
2024/01/07 08:31:22;;;;;;;10.90;3.83;;;;;;;;;;10582197;27;20100;-75
2024/01/07 08:36:25;;;;;;;9.57;3.75;;;;;;;;;;10581008;27;20055;-76
2024/01/07 08:41:28;;;;;;;11.60;3.78;;;;;;;;;;10594265;27;20047;-76
2024/01/07 08:46:33;;;;;;;11.25;3.88;;;;;;;;;;10591048;27;20133;-76
2024/01/07 08:51:35;;;;;;;;;;;;;;;;;;10596929;27;20043;-74
2024/01/07 08:56:39;;;;;;;14.05;4.55;;;;;;;;;;10565206;27;19919;-76
2024/01/07 09:01:43;;;;;;;10.30;4.05;;;;;;;;;;10571410;27;20162;-75
2024/01/07 09:06:46;;;;;;;;;;;;;;;;;;10589426;27;20042;-76
2024/01/07 09:11:48;;;;;;;11.15;4.47;;;;;;;;;;10588411;27;20077;-75
2024/01/07 09:16:53;;;;;;;10.95;3.97;;;;;;;;;;10588750;27;20050;-76
2024/01/07 09:21:55;;;;;;;11.68;4.60;;;;;;;;;;10585407;27;20043;-77
2024/01/07 09:26:59;;;;;;;11.00;3.85;;;;;;;;;;10598013;27;20054;-75
2024/01/07 09:32:03;;;;;;;12.50;4.88;;;;;;;;;;10583334;27;20496;-75
2024/01/07 09:37:06;;;;;;;;;;;;;;;;;;10582817;27;20051;-75
2024/01/07 09:42:11;;;;;;;10.20;3.80;;;;;;;;;;10568955;27;20009;-75
2024/01/07 09:47:16;;;;;;;15.63;5.53;;;;;;;;;;10586959;27;20528;-76
2024/01/07 09:52:19;;;;;;;12.27;4.95;;;;;;;;;;10585267;27;20032;-76
2024/01/07 09:57:21;;;;;;;14.02;4.82;;;;;;;;;;10592616;27;20043;-75
2024/01/07 10:02:32;;;;;;;12.95;4.55;;;;;;;;;;10572175;27;20056;-75
2024/01/07 10:07:35;;;;;;;11.68;4.90;;;;;;;;;;10582303;27;20062;-74
2024/01/07 10:12:37;;;;;;;14.25;5.03;;;;;;;;;;10599004;27;20082;-75
2024/01/07 10:17:42;;;;;;;12.57;4.60;;;;;;;;;;10592311;27;20067;-75
2024/01/07 10:22:47;;;;;;;16.30;5.93;;;;;;;;;;10588366;27;20130;-74
2024/01/07 10:27:50;;;;;;;11.38;4.38;;;;;;;;;;10587557;27;20116;-75
2024/01/07 10:32:57;;;;;;;12.88;5.40;;;;;;;;;;10589875;27;20137;-75
2024/01/07 10:37:59;;;;;;;11.02;4.22;;;;;;;;;;10596083;27;20492;-76
2024/01/07 10:43:02;;;;;;;15.07;5.47;;;;;;;;;;10595467;27;20108;-75
2024/01/07 10:48:09;;;;;;;11.57;4.30;;;;;;;;;;10585979;27;20040;-74
2024/01/07 10:53:15;;;;;;;17.15;5.97;;;;;;;;;;10592978;27;20116;-77
2024/01/07 10:58:18;;;;;;;15.27;6.20;;;;;;;;;;10581281;27;20040;-76
2024/01/07 11:03:25;;;;;;;11.90;4.70;;;;;;;;;;10595536;27;20045;-77
2024/01/07 11:08:33;;;;;;;10.52;4.25;;;;;;;;;;10596147;27;20476;-75
2024/01/07 11:13:37;;;;;;;11.75;4.22;;;;;;;;;;10587453;27;20089;-74
2024/01/07 11:18:46;;;;;;;12.98;5.60;;;;;;;;;;10595830;27;20031;-75
2024/01/07 11:23:49;;;;;;;7.35;3.28;;;;;;;;;;10593103;27;20058;-74
2024/01/07 11:28:52;;;;;;;10.68;3.78;;;;;;;;;;10586435;27;20110;-76
2024/01/07 11:33:56;;;;;;;9.77;3.80;;;;;;;;;;10594483;27;20075;-75
2024/01/07 11:38:59;;;;;;;9.15;4.00;;;;;;;;;;10592082;27;20798;-76
2024/01/07 11:44:02;;;;;;;10.20;3.70;;;;;;;;;;10590642;27;20051;-76
2024/01/07 11:49:10;;;;;;;10.18;4.25;;;;;;;;;;10585827;27;20116;-77
2024/01/07 11:54:13;;;;;;;12.15;4.32;;;;;;;;;;10592863;27;20039;-77
2024/01/07 11:59:16;;;;;;;8.88;4.20;;;;;;;;;;10579642;27;20039;-75
2024/01/07 12:04:23;;;;;;;9.90;3.63;;;;;;;;;;10586760;27;20044;-78
2024/01/07 12:09:27;;;;;;;10.60;4.65;;;;;;;;;;10589833;27;20108;-76
2024/01/07 12:14:31;;;;;;;9.23;4.00;;;;;;;;;;10587102;27;20043;-73
2024/01/07 12:19:34;;;;;;;;;;;;;;;;;;10591850;27;20590;-76
2024/01/07 12:24:38;;;;;;;9.80;3.42;;;;;;;;;;10591137;27;19919;-76
2024/01/07 12:29:41;;;;;;;10.48;4.18;;;;;;;;;;10583166;27;20437;-76
2024/01/07 12:34:44;;;;;;;8.68;3.97;;;;;;;;;;10595495;27;20515;-76
2024/01/07 12:39:50;;;;;;;10.07;4.50;;;;;;;;;;10593005;27;20046;-75
2024/01/07 12:44:53;;;;;;;11.93;4.63;;;;;;;;;;10588914;27;20426;-76
2024/01/07 12:49:57;;;;;;;8.95;3.90;;;;;;;;;;10587375;27;20036;-74
2024/01/07 12:55:01;;;;;;;13.35;4.60;;;;;;;;;;10591977;27;20055;-75
2024/01/07 13:00:06;;;;;;;9.63;4.05;;;;;;;;;;10586732;27;20050;-73
2024/01/07 13:05:09;;;;;;;10.07;3.60;;;;;;;;;;10597843;27;20047;-73
2024/01/07 13:10:13;;;;;;;5.00;1.83;;;;;;;;;;10596286;27;20046;-75
2024/01/07 13:15:16;;;;;;;;;;;;;;;;;;10586907;27;20058;-75
2024/01/07 13:20:20;;;;;;;9.20;4.05;;;;;;;;;;10587973;27;20447;-75
2024/01/07 13:25:24;;;;;;;9.77;3.23;;;;;;;;;;10588028;27;20115;-74
2024/01/07 13:30:27;;;;;;;11.55;4.20;;;;;;;;;;10580741;27;20142;-75
2024/01/07 13:35:30;;;;;;;6.22;3.33;;;;;;;;;;10586020;27;20119;-75
2024/01/07 13:40:34;;;;;;;11.52;3.78;;;;;;;;;;10588024;27;20046;-74
2024/01/07 13:45:36;;;;;;;8.32;3.88;;;;;;;;;;10586477;27;20040;-75
2024/01/07 13:50:39;;;;;;;9.55;4.40;;;;;;;;;;10584004;27;20047;-75
2024/01/07 13:55:44;;;;;;;7.18;3.63;;;;;;;;;;10584927;27;20051;-73
2024/01/07 14:00:47;;;;;;;10.45;4.55;;;;;;;;;;10582990;27;20142;-75
2024/01/07 14:05:51;;;;;;;14.47;4.93;;;;;;;;;;10594199;27;20502;-75
2024/01/07 14:10:55;;;;;;;12.53;5.00;;;;;;;;;;10593796;27;20405;-75
2024/01/07 14:15:57;;;;;;;14.18;4.25;;;;;;;;;;10598624;27;20127;-75
2024/01/07 14:21:00;;;;;;;10.95;4.55;;;;;;;;;;10593464;27;20043;-75
2024/01/07 14:26:22;;;;;;;12.70;4.30;;;;;;;;;;10601574;27;20069;-75
2024/01/07 14:31:39;;;;;;;10.88;4.32;;;;;;;;;;10595097;27;20499;-75
2024/01/07 14:36:43;;;;;;;12.50;4.47;;;;;;;;;;10596407;27;20412;-75
2024/01/07 14:41:46;;;;;;;;;;;;;;;;;;10600705;27;20058;-75
2024/01/07 14:46:50;;;;;;;11.52;4.05;;;;;;;;;;10592025;27;20584;-74
2024/01/07 14:51:53;;;;;;;12.30;5.30;;;;;;;;;;10575708;27;20046;-76
2024/01/07 14:56:55;;;;;;;7.65;3.42;;;;;;;;;;10589969;27;20060;-74
2024/01/07 15:01:59;;;;;;;16.02;4.95;;;;;;;;;;10598475;27;20146;-75
2024/01/07 15:07:02;;;;;;;12.30;5.35;;;;;;;;;;10587780;27;20122;-75
2024/01/07 15:12:05;;;;;;;9.67;4.07;;;;;;;;;;10598947;27;20122;-74
2024/01/07 15:17:09;;;;;;;12.60;5.43;;;;;;;;;;10602137;27;20469;-75
2024/01/07 15:22:12;;;;;;;8.93;3.67;;;;;;;;;;10592186;27;20092;-75
2024/01/07 15:27:14;;;;;;;15.25;4.38;;;;;;;;;;10593303;27;20050;-73
2024/01/07 15:32:18;;;;;;;15.32;5.25;;;;;;;;;;10589104;27;20059;-75
2024/01/07 15:37:21;;;;;;;8.98;4.60;;;;;;;;;;10590796;27;20493;-74
2024/01/07 15:42:26;;;;;;;12.52;5.53;;;;;;;;;;10592905;27;20339;-74
2024/01/07 15:47:33;;;;;;;11.70;4.57;;;;;;;;;;10592096;27;20035;-74
2024/01/07 15:52:39;;;;;;;12.47;5.27;;;;;;;;;;10580745;27;20051;-74
2024/01/07 15:57:44;;;;;;;13.63;4.50;;;;;;;;;;10589709;27;20184;-76
2024/01/07 16:02:48;;;;;;;11.27;4.30;;;;;;;;;;10595794;27;20456;-75
2024/01/07 16:07:52;;;;;;;14.95;4.72;;;;;;;;;;10605159;27;20122;-74
2024/01/07 16:12:55;;;;;;;12.02;4.63;;;;;;;;;;10594824;27;20128;-74
2024/01/07 16:17:59;;;;;;;7.78;3.30;;;;;;;;;;10601577;27;20103;-75
2024/01/07 16:23:02;;;;;;;8.63;3.50;;;;;;;;;;10600646;27;20046;-75
2024/01/07 16:28:06;;;;;;;4.83;2.13;;;;;;;;;;10591590;27;20051;-76
2024/01/07 16:33:11;;;;;;;12.55;5.03;;;;;;;;;;10597599;27;20059;-75
2024/01/07 16:38:15;;;;;;;;;;;;;;;;;;10601435;27;21415;-74
2024/01/07 16:43:19;;;;;;;14.77;4.35;;;;;;;;;;10602066;27;19926;-75
2024/01/07 16:48:23;;;;;;;11.75;4.70;;;;;;;;;;10597409;27;20043;-76
2024/01/07 16:53:45;;;;;;;17.67;6.15;;;;;;;;;;10603809;27;20407;-75
2024/01/07 16:58:48;;;;;;;16.95;5.22;;;;;;;;;;10598992;27;20113;-74
2024/01/07 17:03:55;;;;;;;11.50;3.93;;;;;;;;;;10600261;27;20039;-76
2024/01/07 17:08:58;;;;;;;16.77;6.27;;;;;;;;;;10596861;27;20036;-74
2024/01/07 17:14:01;;;;;;;17.13;6.57;;;;;;;;;;10599172;27;20149;-77
2024/01/07 17:19:05;;;;;;;16.40;6.70;;;;;;;;;;10586550;27;20500;-75
2024/01/07 17:24:08;;;;;;;15.02;6.30;;;;;;;;;;10592189;27;20050;-74
2024/01/07 17:29:11;;;;;;;16.73;5.70;;;;;;;;;;10587950;27;20510;-75
2024/01/07 17:34:15;;;;;;;14.67;5.17;;;;;;;;;;10586152;27;20120;-76
2024/01/07 17:39:18;;;;;;;;;;;;;;;;;;10586122;27;20112;-75
2024/01/07 17:44:21;;;;;;;14.73;5.37;;;;;;;;;;10579499;27;20015;-76
2024/01/07 17:49:25;;;;;;;14.60;5.27;;;;;;;;;;10583075;27;20059;-74
2024/01/07 17:54:28;;;;;;;16.00;5.88;;;;;;;;;;10581973;27;20055;-75
2024/01/07 17:59:33;;;;;;;13.63;5.17;;;;;;;;;;10581575;27;20114;-75
2024/01/07 18:04:38;;;;;;;17.53;6.43;;;;;;;;;;10590892;27;20040;-76
2024/01/07 18:09:40;;;;;;;;;;;;;;;;;;10583916;27;20142;-74
2024/01/07 18:14:44;;;;;;;17.90;7.28;;;;;;;;;;10588552;27;19927;-75
2024/01/07 18:19:48;;;;;;;17.02;6.55;;;;;;;;;;10575985;27;20399;-75
2024/01/07 18:24:50;;;;;;;16.77;5.72;;;;;;;;;;10582935;27;20552;-75
2024/01/07 18:29:55;;;;;;;9.93;4.07;;;;;;;;;;10585483;27;20052;-77
2024/01/07 18:34:57;;;;;;;;;;;;;;;;;;10588590;27;20047;-76
2024/01/07 18:40:02;;;;;;;15.23;5.60;;;;;;;;;;10586011;27;19935;-76
2024/01/07 18:45:05;;;;;;;20.65;7.03;;;;;;;;;;10566945;28;20100;-75
2024/01/07 18:50:08;;;;;;;18.00;6.73;;;;;;;;;;10585806;27;20047;-75
2024/01/07 18:55:12;;;;;;;17.93;7.03;;;;;;;;;;10595758;27;20039;-76
2024/01/07 19:00:15;;;;;;;;;;;;;;;;;;10597602;27;20051;-76
2024/01/07 19:05:18;;;;;;;19.60;6.60;;;;;;;;;;10590262;27;19919;-76
2024/01/07 19:10:22;;;;;;;16.40;6.07;;;;;;;;;;10594847;27;20404;-75
2024/01/07 19:15:24;;;;;;;14.88;6.45;;;;;;;;;;10592769;27;20091;-74
2024/01/07 19:20:30;;;;;;;21.73;7.40;;;;;;;;;;10584809;27;20138;-79
2024/01/07 19:25:36;;;;;;;21.77;7.77;;;;;;;;;;10595188;27;20062;-77
2024/01/07 19:30:39;;;;;;;16.02;6.28;;;;;;;;;;10591933;27;20055;-75
2024/01/07 19:35:41;;;;;;;17.17;6.50;;;;;;;;;;10590888;27;20039;-75
2024/01/07 19:40:45;;;;;;;14.53;5.33;;;;;;;;;;10573846;27;20423;-78
2024/01/07 19:45:48;;;;;;;11.85;5.88;;;;;;;;;;10589490;27;20043;-75
2024/01/07 19:50:51;;;;;;;14.87;5.17;;;;;;;;;;10593272;27;20047;-77
2024/01/07 19:55:55;;;;;;;16.57;6.07;;;;;;;;;;10592744;27;20371;-76
2024/01/07 20:00:57;;;;;;;18.13;6.35;;;;;;;;;;10588883;27;20085;-77
2024/01/07 20:06:01;;;;;;;16.90;6.37;;;;;;;;;;10587742;27;20472;-74
2024/01/07 20:11:05;;;;;;;18.20;6.67;;;;;;;;;;10588830;27;20092;-75
2024/01/07 20:16:08;;;;;;;19.00;7.07;;;;;;;;;;10586293;27;20047;-77
2024/01/07 20:21:18;;;;;;;13.57;5.37;;;;;;;;;;10578564;27;21744;-77
2024/01/07 20:26:22;;;;;;;16.10;5.47;;;;;;;;;;10567532;27;20047;-76
2024/01/07 20:31:26;;;;;;;14.87;5.53;;;;;;;;;;10578825;27;20047;-75
2024/01/07 20:36:29;;;;;;;12.93;5.23;;;;;;;;;;10586515;27;20043;-75
2024/01/07 20:41:33;;;;;;;12.80;4.70;;;;;;;;;;10589145;27;20104;-76
2024/01/07 20:46:38;;;;;;;13.05;4.97;;;;;;;;;;10581045;27;20043;-76
2024/01/07 20:51:41;;;;;;;12.23;4.93;;;;;;;;;;10589636;27;20114;-75
2024/01/07 20:56:45;;;;;;;11.23;3.13;;;;;;;;;;10597785;27;20131;-77
2024/01/07 21:01:48;;;;;;;7.55;3.13;;;;;;;;;;10591642;27;20042;-76
2024/01/07 21:06:51;;;;;;;12.30;3.87;;;;;;;;;;10569526;27;20035;-76
2024/01/07 21:11:56;;;;;;;16.75;4.93;;;;;;;;;;10584754;27;20036;-75
2024/01/07 21:16:59;;;;;;;14.90;6.53;;;;;;;;;;10589677;27;20039;-77
2024/01/07 21:22:02;;;;;;;20.23;6.85;;;;;;;;;;10590546;27;20050;-75
2024/01/07 21:27:07;;;;;;;14.07;5.77;;;;;;;;;;10607416;27;20057;-76
2024/01/07 21:32:10;;;;;;;20.23;7.57;;;;;;;;;;10594718;27;20157;-75
2024/01/07 21:37:13;;;;;;;11.17;4.57;;;;;;;;;;10590113;27;20145;-75
2024/01/07 21:42:18;;;;;;;13.37;4.23;;;;;;;;;;10596685;27;20035;-75
2024/01/07 21:47:21;;;;;;;14.43;5.03;;;;;;;;;;10589447;27;20058;-77
2024/01/07 21:52:26;;;;;;;13.60;4.17;;;;;;;;;;10598458;27;20084;-76
2024/01/07 21:57:30;;;;;;;12.93;4.78;;;;;;;;;;10592386;27;20128;-75
2024/01/07 22:02:33;;;;;;;12.67;4.40;;;;;;;;;;10592224;28;20043;-76
2024/01/07 22:07:36;;;;;;;18.07;5.47;;;;;;;;;;10589370;27;20040;-75
2024/01/07 22:12:41;;;;;;;15.03;5.67;;;;;;;;;;10597672;27;20032;-75
2024/01/07 22:17:43;;;;;;;;;;;;;;;;;;10592906;27;20266;-75
2024/01/07 22:22:49;;;;;;;8.97;3.17;;;;;;;;;;10593345;27;19959;-75
2024/01/07 22:27:53;;;;;;;9.13;3.40;;;;;;;;;;10585486;27;20142;-78
2024/01/07 22:32:56;;;;;;;9.50;4.10;;;;;;;;;;10599135;27;20080;-74
2024/01/07 22:37:59;;;;;;;9.13;3.83;;;;;;;;;;10581902;27;20201;-76
2024/01/07 22:43:09;;;;;;;2.80;1.47;;;;;;;;;;10598765;27;20119;-76
2024/01/07 22:48:13;;;;;;;4.43;1.67;;;;;;;;;;10598817;27;20045;-77
2024/01/07 22:53:16;;;;;;;10.03;3.53;;;;;;;;;;10599412;27;20241;-76
2024/01/07 22:58:20;;;;;;;11.60;3.67;;;;;;;;;;10600877;27;20047;-76
2024/01/07 23:03:23;;;;;;;7.85;2.75;;;;;;;;;;10599041;27;20402;-76
2024/01/07 23:08:26;;;;;;;7.10;3.60;;;;;;;;;;10605587;27;20036;-77
2024/01/07 23:13:30;;;;;;;12.17;4.40;;;;;;;;;;10600008;27;20051;-76
2024/01/07 23:18:33;;;;;;;7.90;3.92;;;;;;;;;;10599808;27;20051;-75
2024/01/07 23:23:36;;;;;;;7.93;3.07;;;;;;;;;;10590503;27;20065;-74
2024/01/07 23:28:40;;;;;;;7.43;3.30;;;;;;;;;;10591516;27;20071;-76
2024/01/07 23:33:43;;;;;;;10.90;4.03;;;;;;;;;;10598016;27;20073;-75
2024/01/07 23:38:46;;;;;;;7.33;3.70;;;;;;;;;;10596394;27;20274;-76
2024/01/07 23:43:51;;;;;;;11.93;3.90;;;;;;;;;;10593733;27;20981;-75
2024/01/07 23:48:54;;;;;;;5.77;2.83;;;;;;;;;;10595597;27;20126;-76
2024/01/07 23:53:57;;;;;;;6.33;2.80;;;;;;;;;;10571002;27;20036;-75
2024/01/07 23:59:02;;;;;;;8.73;3.37;;;;;;;;;;10593356;27;20560;-75
